Nearby METAR Reports

 

KLBE - Latrobe/Westmorl, Pennsylvania, USA
Distance from station: SE 16mi, 26km
Updated: Tue, 21-Nov-2017 9:47am EST
Few Clouds
Few Clouds
 Wind from SW
Wind: SW 17 mph , 28 km/h, Gust: 32 mph , 52 km/h
Temperature: 48°F , 9°C
Wind Chill: 42°F , 6°C
Dew Point: 25°F , -4°C
Humidity: 40%
Barometer: 30.02 inHg , 1016.6 hPa
Clouds: Few Clouds
Visibility: 20 miles , 32 km
Cloud details: Few Clouds 25000 ft
2017/11/21 14:47 KLBE 211447Z 23015G28KT 20SM FEW250 09/M04 A3002
KAGC - Pittsburgh/Alleg, Pennsylvania, USA
Distance from station: WSW 18mi, 30km
Updated: Tue, 21-Nov-2017 9:53am EST
Clear
Clear
 Wind from SW
Wind: SW 20 mph , 31 km/h, Gust: 41 mph , 67 km/h
Temperature: 50°F , 10°C
Wind Chill: 44°F , 7°C
Dew Point: 27°F , -3°C
Humidity: 40%
Barometer: 29.97 inHg , 1014.9 hPa
Clouds: Clear
Visibility: 10 miles , 16 km
2017/11/21 14:53 KAGC 211453Z 22017G36KT 10SM CLR 10/M03 A2997 RMK AO2 PK WND 21036/1447 SLP161 T01001033 50003
 
KBTP - Butler Co., Pennsylvania, USA
Distance from station: NW 29mi, 47km
Updated: Tue, 21-Nov-2017 9:56am EST
Clear
Clear
 Wind from SW
Wind: SW 15 mph , 24 km/h, Gust: 26 mph , 43 km/h
Temperature: 46°F , 8°C
Wind Chill: 40°F , 4°C
Dew Point: 27°F , -3°C
Humidity: 46%
Barometer: 29.95 inHg , 1014.2 hPa
Clouds: Clear
Visibility: 10 miles , 16 km
2017/11/21 14:56 KBTP 211456Z AUTO 22013G23KT 10SM CLR 08/M03 A2995 RMK AO2 PK WND 20031/1444 SLP153 T00831033 58004
KIDI - Indiana/Stewart, Pennsylvania, USA
Distance from station: ENE 29mi, 47km
Updated: Tue, 21-Nov-2017 10:15am EST
Clear
Clear
 Wind from WSW
Wind: WSW 15 mph , 24 km/h, Gust: 29 mph , 46 km/h
Temperature: 50°F , 10°C
Wind Chill: 45°F , 7°C
Dew Point: 28°F , -2°C
Humidity: 43%
Barometer: 30.02 inHg , 1016.6 hPa
Clouds: Clear
Visibility: 10 miles , 16 km
2017/11/21 15:15 KIDI 211515Z AUTO 25013G25KT 10SM CLR 10/M02 A3002 RMK A01
 
KPIT - Pittsburgh, Pennsylvania, USA
Distance from station: W 36mi, 57km
Updated: Tue, 21-Nov-2017 9:51am EST
Mostly cloudy
Mostly cloudy
 Wind from SW
Wind: SW 17 mph , 28 km/h, Gust: 29 mph , 46 km/h
Temperature: 48°F , 9°C
Wind Chill: 42°F , 6°C
Dew Point: 27°F , -3°C
Humidity: 43%
Barometer: 29.95 inHg , 1014.2 hPa
Clouds: Mostly cloudy
Visibility: 10 miles , 16 km
Cloud details: Mostly cloudy 25000 ft
2017/11/21 14:51 KPIT 211451Z 22015G25KT 10SM BKN250 09/M03 A2995 RMK AO2 PK WND 21026/1437 SLP155 T00941028 58001
KJST - Johnstown, Pennsylvania, USA
Distance from station: ESE 41mi, 66km
Updated: Tue, 21-Nov-2017 9:54am EST
Clear
Clear
 Wind from WSW
Wind: WSW 18 mph , 30 km/h, Gust: 29 mph , 46 km/h
Temperature: 46°F , 8°C
Wind Chill: 39°F , 4°C
Dew Point: 27°F , -3°C
Humidity: 46%
Barometer: 29.99 inHg , 1015.6 hPa
Clouds: Clear
Visibility: 10 miles , 16 km
2017/11/21 14:54 KJST 211454Z AUTO 24016G25KT 10SM CLR 08/M03 A2999 RMK AO2 PK WND 23027/1437 SLP169 T00781028 50005
 
KAFJ - Washington, Pennsylvania, USA
Distance from station: WSW 42mi, 68km
Updated: Tue, 21-Nov-2017 9:56am EST
Clear
Clear
 Wind from SW
Wind: SW 22 mph , 35 km/h, Gust: 32 mph , 52 km/h
Temperature: 50°F , 10°C
Wind Chill: 43°F , 6°C
Dew Point: 28°F , -2°C
Humidity: 43%
Barometer: 30.01 inHg , 1016.3 hPa
Clouds: Clear
Visibility: 10 miles , 16 km
2017/11/21 14:56 KAFJ 211456Z AUTO 22019G28KT 10SM CLR 10/M02 A3001 RMK AO2 PK WND 22028/1451 SLP169 T01001022 50003
KBVI - Beaver Falls Arp, Pennsylvania, USA
Distance from station: WNW 48mi, 77km
Updated: Tue, 21-Nov-2017 9:47am EST
Clear
Clear
 Wind from SSW
Wind: SSW 15 mph , 24 km/h, Gust: 23 mph , 37 km/h
Temperature: 46°F , 8°C
Wind Chill: 40°F , 4°C
Dew Point: 27°F , -3°C
Humidity: 46%
Barometer: 29.93 inHg , 1013.5 hPa
Clouds: Clear
Visibility: 10 miles , 16 km
2017/11/21 14:47 KBVI 211447Z 21013G20KT 10SM CLR 08/M03 A2993